Chicago, Illinois
Traffic Map
Current Weather Conditions
Chicago, Illinois
Clear
Clear
18°
Feels Like: 18°
Wind Chill: 18° Ceiling: Unl
Heat Index: 18° Visibility: 10mi
Dew Point: -2° Wind: 10mph
Humidity: 27% Direction: 280° (W)
Pressure: 29.94in Gusts: 0mph
Raw Report DataKMDW 260053Z 28009KT 10SM CLR 18/M02 A2994 RMK AO2 SLP137 T01781017
Traffic Incident Summary
Active as of:
Severity:
Category:
InformationThere was an issue retrieving the traffic information for this location. Please try a different location or try again shortly.
Advertisements
Track Severe Weather on mobile